createdAt,value
2018-05-08T00:00:41.733Z,92.79
2018-05-08T00:01:41.791Z,92.69
2018-05-08T00:02:41.851Z,92.88
2018-05-08T00:03:41.911Z,93.36
2018-05-08T00:04:41.977Z,93.12
2018-05-08T00:05:42.031Z,93.26
2018-05-08T00:06:42.093Z,93.26
2018-05-08T00:07:42.152Z,93.74
2018-05-08T00:08:42.212Z,94.12
2018-05-08T00:09:42.272Z,93.93
2018-05-08T00:10:42.332Z,93.46
2018-05-08T00:11:42.397Z,93.55
2018-05-08T00:12:42.458Z,93.36
2018-05-08T00:13:42.514Z,92.79
2018-05-08T00:14:42.575Z,93.36
2018-05-08T00:15:42.633Z,93.26
2018-05-08T00:16:42.692Z,93.55
2018-05-08T00:17:42.758Z,93.65
2018-05-08T00:18:42.815Z,93.26
2018-05-08T00:19:42.876Z,93.36
2018-05-08T00:20:42.936Z,93.36
2018-05-08T00:21:42.995Z,93.84
2018-05-08T00:22:43.056Z,93.17
2018-05-08T00:23:43.123Z,94.31
2018-05-08T00:24:43.180Z,94.41
2018-05-08T00:25:43.242Z,94.31
2018-05-08T00:26:43.297Z,94.41
2018-05-08T00:27:43.354Z,93.60
2018-05-08T00:28:43.415Z,93.51
2018-05-08T00:29:43.489Z,94.27
2018-05-08T00:30:43.538Z,94.46
2018-05-08T00:31:43.598Z,94.65
2018-05-08T00:32:43.657Z,94.74
2018-05-08T00:33:43.718Z,94.56
2018-05-08T00:34:43.778Z,95.41
2018-05-08T00:35:43.837Z,95.51
2018-05-08T00:36:43.904Z,96.08
2018-05-08T00:37:43.956Z,95.98
2018-05-08T00:38:44.019Z,95.98
2018-05-08T00:39:44.081Z,95.89
2018-05-08T00:40:44.138Z,96.17
2018-05-08T00:41:44.197Z,96.37
2018-05-08T00:42:44.258Z,96.75
2018-05-08T00:43:44.318Z,95.89
2018-05-08T00:44:44.383Z,96.66
2018-05-08T00:45:44.440Z,96.37
2018-05-08T00:46:44.500Z,96.56
2018-05-08T00:47:44.558Z,96.56
2018-05-08T00:48:44.618Z,96.75
2018-05-08T00:49:44.680Z,96.56
2018-05-08T00:50:44.742Z,96.08
2018-05-08T00:51:44.797Z,97.51
2018-05-08T00:52:44.861Z,96.27
2018-05-08T00:53:44.918Z,96.37
2018-05-08T00:54:44.978Z,96.89
2018-05-08T00:55:45.038Z,96.80
2018-05-08T00:56:45.098Z,97.08
2018-05-08T00:57:45.158Z,97.08
2018-05-08T00:58:45.217Z,96.80
2018-05-08T00:59:45.277Z,97.75
2018-05-08T01:00:45.337Z,96.89
2018-05-08T01:01:45.398Z,97.75
2018-05-08T01:02:45.457Z,97.66
2018-05-08T01:03:45.516Z,97.17
2018-05-08T01:04:45.583Z,97.27
2018-05-08T01:05:45.637Z,97.56
2018-05-08T01:06:45.698Z,97.46
2018-05-08T01:07:45.757Z,97.66
2018-05-08T01:08:45.815Z,97.85
2018-05-08T01:09:45.881Z,97.56
2018-05-08T01:10:45.936Z,97.75
2018-05-08T01:11:45.997Z,98.13
2018-05-08T01:12:46.055Z,98.99
2018-05-08T01:13:46.116Z,99.08
2018-05-08T01:14:46.179Z,99.46
2018-05-08T01:15:46.238Z,99.56
2018-05-08T01:16:46.296Z,99.37
2018-05-08T01:17:46.355Z,98.61
2018-05-08T01:18:46.415Z,98.61
2018-05-08T01:19:46.474Z,99.08
2018-05-08T01:20:46.532Z,99.99
2018-05-08T01:21:46.593Z,98.99
2018-05-08T01:22:46.655Z,99.75
2018-05-08T01:23:46.713Z,99.85
2018-05-08T01:24:46.772Z,99.70
2018-05-08T01:25:46.834Z,99.99
2018-05-08T01:26:46.893Z,99.99
2018-05-08T01:27:46.950Z,99.99
2018-05-08T01:28:47.013Z,99.80
2018-05-08T01:29:47.072Z,99.99
2018-05-08T01:30:47.131Z,99.99
2018-05-08T01:31:47.191Z,99.99
2018-05-08T01:32:47.249Z,99.99
2018-05-08T01:33:47.310Z,99.99
2018-05-08T01:34:47.369Z,99.99
2018-05-08T01:35:47.428Z,99.75
2018-05-08T01:36:47.488Z,99.85
2018-05-08T01:37:48.042Z,99.66
2018-05-08T01:38:47.608Z,98.99
2018-05-08T01:39:47.667Z,99.99
2018-05-08T01:40:47.726Z,99.99
2018-05-08T01:41:47.787Z,99.99
2018-05-08T01:42:47.847Z,99.99
2018-05-08T01:43:47.906Z,99.99
2018-05-08T01:44:47.966Z,99.99
2018-05-08T01:45:48.025Z,99.46
2018-05-08T01:46:48.089Z,99.56
2018-05-08T01:47:48.145Z,99.99
2018-05-08T01:48:48.202Z,99.70
2018-05-08T01:50:01.000Z,99.99
2018-05-08T01:50:48.325Z,99.99
2018-05-08T01:51:48.387Z,99.99
2018-05-08T01:52:48.443Z,99.99
2018-05-08T01:53:48.502Z,99.99
2018-05-08T01:54:48.563Z,99.99
2018-05-08T01:55:48.621Z,99.99
2018-05-08T01:56:48.931Z,99.99
2018-05-08T01:57:48.741Z,99.99
2018-05-08T01:58:48.800Z,99.99
2018-05-08T01:59:48.860Z,99.99
2018-05-08T02:00:48.920Z,99.99
2018-05-08T02:01:48.978Z,99.99
2018-05-08T02:02:49.039Z,99.99
2018-05-08T02:03:49.098Z,99.99
2018-05-08T02:04:49.158Z,99.99
2018-05-08T02:05:49.217Z,99.99
2018-05-08T02:06:49.276Z,99.99
2018-05-08T02:07:49.336Z,99.99
2018-05-08T02:08:49.397Z,99.99
2018-05-08T02:09:49.455Z,99.99
2018-05-08T02:10:49.515Z,99.99
2018-05-08T02:11:49.574Z,99.99
2018-05-08T02:12:49.634Z,99.99
2018-05-08T02:13:49.694Z,99.99
2018-05-08T02:14:49.753Z,99.99
2018-05-08T02:15:49.813Z,99.99
2018-05-08T02:16:49.878Z,99.99
2018-05-08T02:17:49.937Z,99.99
2018-05-08T02:18:50.241Z,99.99
2018-05-08T02:19:50.051Z,99.99
2018-05-08T02:20:50.110Z,99.99
2018-05-08T02:21:50.169Z,99.99
2018-05-08T02:22:50.232Z,99.99
2018-05-08T02:23:50.288Z,99.99
2018-05-08T02:24:50.348Z,99.99
2018-05-08T02:25:50.422Z,99.99
2018-05-08T02:26:50.466Z,99.99
2018-05-08T02:27:50.526Z,99.99
2018-05-08T02:28:50.586Z,99.99
2018-05-08T02:29:50.645Z,99.99
2018-05-08T02:30:50.706Z,99.99
2018-05-08T02:31:50.763Z,99.99
2018-05-08T02:32:50.828Z,99.99
2018-05-08T02:33:50.882Z,99.99
2018-05-08T02:34:50.944Z,99.99
2018-05-08T02:35:51.000Z,99.99
2018-05-08T02:36:51.313Z,99.99
2018-05-08T02:37:51.119Z,99.99
2018-05-08T02:38:51.180Z,99.99
2018-05-08T02:39:51.239Z,99.99
2018-05-08T02:40:51.302Z,99.99
2018-05-08T02:41:51.357Z,99.99
2018-05-08T02:42:51.416Z,99.99
2018-05-08T02:43:51.475Z,99.99
2018-05-08T02:44:51.534Z,99.99
2018-05-08T02:45:51.595Z,99.99
2018-05-08T02:46:51.658Z,99.99
2018-05-08T02:47:51.713Z,99.99
2018-05-08T02:48:51.772Z,99.99
2018-05-08T02:49:51.837Z,99.99
2018-05-08T02:50:51.892Z,99.99
2018-05-08T02:51:51.951Z,99.99
2018-05-08T02:52:52.010Z,99.99
2018-05-08T02:53:52.071Z,99.99
2018-05-08T02:54:52.128Z,99.99
2018-05-08T02:55:52.192Z,99.99
2018-05-08T02:56:52.247Z,99.99
2018-05-08T02:57:52.307Z,99.99
2018-05-08T02:58:52.364Z,99.99
2018-05-08T02:59:52.424Z,99.99
2018-05-08T03:00:52.484Z,99.99
2018-05-08T03:01:52.546Z,99.99
2018-05-08T03:02:52.605Z,99.99
2018-05-08T03:03:52.664Z,99.99
2018-05-08T03:04:52.720Z,99.99
2018-05-08T03:05:52.784Z,99.99
2018-05-08T03:06:52.839Z,99.99
2018-05-08T03:07:52.899Z,99.99
2018-05-08T03:08:52.958Z,99.99
2018-05-08T03:09:53.029Z,99.99
2018-05-08T03:10:53.077Z,99.99
2018-05-08T03:11:53.136Z,99.99
2018-05-08T03:12:53.196Z,99.99
2018-05-08T03:13:53.254Z,99.99
2018-05-08T03:14:53.314Z,99.99
2018-05-08T03:15:53.371Z,99.99
2018-05-08T03:16:53.431Z,99.99
2018-05-08T03:17:53.495Z,99.99
2018-05-08T03:18:53.550Z,99.99
2018-05-08T03:19:53.609Z,99.99
2018-05-08T03:20:53.668Z,99.99
2018-05-08T03:21:53.728Z,99.99
2018-05-08T03:22:53.787Z,99.99
2018-05-08T03:23:53.845Z,99.99
2018-05-08T03:24:53.904Z,99.99
2018-05-08T03:25:53.964Z,99.99
2018-05-08T03:26:54.026Z,99.99
2018-05-08T03:27:54.081Z,99.99
2018-05-08T03:28:54.141Z,99.99
2018-05-08T03:29:54.200Z,99.99
2018-05-08T03:30:54.260Z,99.99
2018-05-08T03:31:54.319Z,99.99
2018-05-08T03:32:54.376Z,99.99
2018-05-08T03:33:54.440Z,99.99
2018-05-08T03:34:54.499Z,99.99
2018-05-08T03:35:54.558Z,99.99
2018-05-08T03:36:54.613Z,99.99
2018-05-08T03:37:54.672Z,99.99
2018-05-08T03:38:54.983Z,99.99
2018-05-08T03:39:54.791Z,99.99
2018-05-08T03:40:55.159Z,99.99
2018-05-08T03:41:54.910Z,99.99
2018-05-08T03:42:54.968Z,99.99
2018-05-08T03:43:55.027Z,99.99
2018-05-08T03:44:55.085Z,99.99
2018-05-08T03:45:55.145Z,99.99
2018-05-08T03:46:55.205Z,99.99
2018-05-08T03:47:55.262Z,99.99
2018-05-08T03:48:55.380Z,99.99
2018-05-08T03:49:55.381Z,99.99
2018-05-08T03:50:55.441Z,99.99
2018-05-08T03:51:55.499Z,99.99
2018-05-08T03:52:55.557Z,99.99
2018-05-08T03:53:55.618Z,99.99
2018-05-08T03:54:55.675Z,99.99
2018-05-08T03:55:55.892Z,99.99
2018-05-08T03:56:55.795Z,99.99
2018-05-08T03:57:55.853Z,99.99
2018-05-08T03:58:55.915Z,99.99
2018-05-08T03:59:55.970Z,99.99
2018-05-08T04:00:56.034Z,99.99
2018-05-08T04:01:56.089Z,99.99
2018-05-08T04:02:56.149Z,99.99
2018-05-08T04:03:56.210Z,99.99
2018-05-08T04:04:56.266Z,99.99
2018-05-08T04:05:56.325Z,99.99
2018-05-08T04:06:56.383Z,99.99
2018-05-08T04:07:56.441Z,99.99
2018-05-08T04:08:56.499Z,99.99
2018-05-08T04:09:56.560Z,99.99
2018-05-08T04:10:56.618Z,99.99
2018-05-08T04:11:56.676Z,99.99
2018-05-08T04:12:56.735Z,99.99
2018-05-08T04:13:56.794Z,99.99
2018-05-08T04:14:56.860Z,99.99
2018-05-08T04:15:56.911Z,99.99
2018-05-08T04:16:56.971Z,99.99
2018-05-08T04:17:57.030Z,99.99
2018-05-08T04:18:57.088Z,99.99
2018-05-08T04:19:57.148Z,99.99
2018-05-08T04:20:57.260Z,99.99
2018-05-08T04:21:57.272Z,99.99
2018-05-08T04:22:57.325Z,99.99
2018-05-08T04:23:57.381Z,99.99
2018-05-08T04:24:57.459Z,99.99
2018-05-08T04:25:57.501Z,99.99
2018-05-08T04:26:57.559Z,99.99
2018-05-08T04:27:57.618Z,99.99
2018-05-08T04:28:57.695Z,99.99
2018-05-08T04:29:57.736Z,99.99
2018-05-08T04:30:57.794Z,99.99
2018-05-08T04:31:57.854Z,99.99
2018-05-08T04:32:57.911Z,99.99
2018-05-08T04:33:57.971Z,99.99
2018-05-08T04:34:58.029Z,99.99
2018-05-08T04:35:58.088Z,99.99
2018-05-08T04:36:58.148Z,99.99
2018-05-08T04:37:58.207Z,99.99
2018-05-08T04:38:58.265Z,99.99
2018-05-08T04:39:58.323Z,99.99
2018-05-08T04:40:58.532Z,99.99
2018-05-08T04:41:58.442Z,99.99
2018-05-08T04:42:58.501Z,99.99
2018-05-08T04:43:58.559Z,99.99
2018-05-08T04:44:58.617Z,99.99
2018-05-08T04:45:58.677Z,99.99
2018-05-08T04:46:58.740Z,99.99
2018-05-08T04:47:58.795Z,99.99
2018-05-08T04:48:58.853Z,99.99
2018-05-08T04:49:58.913Z,99.99
2018-05-08T04:50:58.972Z,99.99
2018-05-08T04:51:59.036Z,99.99
2018-05-08T04:52:59.090Z,99.99
2018-05-08T04:53:59.153Z,99.99
2018-05-08T04:54:59.208Z,99.99
2018-05-08T04:55:59.266Z,99.99
2018-05-08T04:56:59.325Z,99.99
2018-05-08T04:57:59.385Z,99.99
2018-05-08T04:58:59.444Z,99.99
2018-05-08T04:59:59.501Z,99.99
2018-05-08T05:00:59.561Z,99.99
2018-05-08T05:01:59.621Z,99.99
2018-05-08T05:02:59.680Z,99.99
2018-05-08T05:03:59.738Z,99.99
2018-05-08T05:04:59.798Z,99.99
2018-05-08T05:06:00.198Z,99.99
2018-05-08T05:06:59.998Z,99.99
2018-05-08T05:08:00.009Z,99.99
2018-05-08T05:09:00.033Z,99.99
2018-05-08T05:10:00.346Z,99.99
2018-05-08T05:11:00.166Z,99.99
2018-05-08T05:12:00.211Z,99.99
2018-05-08T05:13:00.268Z,99.99
2018-05-08T05:14:00.852Z,99.99
2018-05-08T05:15:00.389Z,99.99
2018-05-08T05:16:00.446Z,99.99
2018-05-08T05:17:00.506Z,99.99
2018-05-08T05:18:00.570Z,99.99
2018-05-08T05:19:00.625Z,99.99
2018-05-08T05:20:00.683Z,99.99
2018-05-08T05:21:00.743Z,99.99
2018-05-08T05:22:00.802Z,99.99
2018-05-08T05:23:00.861Z,99.99
2018-05-08T05:24:00.921Z,99.99
2018-05-08T05:25:00.982Z,99.99
2018-05-08T05:26:01.037Z,99.99
2018-05-08T05:27:01.103Z,99.99
2018-05-08T05:28:01.187Z,99.99
2018-05-08T05:29:01.214Z,99.99
2018-05-08T05:30:01.274Z,99.99
2018-05-08T05:31:01.334Z,99.99
2018-05-08T05:32:01.409Z,99.99
2018-05-08T05:33:01.453Z,99.99
2018-05-08T05:34:01.515Z,99.99
2018-05-08T05:35:01.571Z,99.99
2018-05-08T05:36:01.633Z,99.99
2018-05-08T05:37:01.709Z,99.99
2018-05-08T05:38:01.750Z,99.99
2018-05-08T05:39:02.638Z,99.99
2018-05-08T05:40:02.410Z,99.99
2018-05-08T05:41:01.928Z,99.99
2018-05-08T05:42:01.988Z,99.99
2018-05-08T05:43:02.050Z,99.99
2018-05-08T05:44:03.147Z,99.99
2018-05-08T05:45:02.165Z,99.99
2018-05-08T05:46:02.227Z,99.99
2018-05-08T05:47:02.288Z,99.99
2018-05-08T05:48:02.343Z,99.99
2018-05-08T05:49:02.405Z,99.99
2018-05-08T05:50:02.468Z,99.99
2018-05-08T05:51:02.523Z,99.99
2018-05-08T05:52:02.584Z,99.99
2018-05-08T05:53:02.644Z,99.80
2018-05-08T05:54:02.705Z,99.75
2018-05-08T05:55:03.011Z,99.61
2018-05-08T05:56:02.822Z,99.80
2018-05-08T05:57:02.895Z,99.99
2018-05-08T05:58:02.953Z,99.80
2018-05-08T05:59:03.262Z,99.04
2018-05-08T06:00:03.143Z,99.32
2018-05-08T06:01:03.123Z,99.23
2018-05-08T06:02:03.182Z,99.13
2018-05-08T06:03:03.248Z,98.85
2018-05-08T06:04:03.303Z,98.47
2018-05-08T06:05:03.361Z,98.42
2018-05-08T06:06:03.421Z,98.08
2018-05-08T06:07:03.483Z,98.13
2018-05-08T06:08:03.541Z,97.42
2018-05-08T06:09:03.605Z,98.32
2018-05-08T06:10:03.662Z,97.37
2018-05-08T06:11:03.721Z,97.08
2018-05-08T06:12:03.811Z,96.89
2018-05-08T06:13:03.843Z,97.18
2018-05-08T06:14:03.903Z,96.98
2018-05-08T06:15:03.964Z,97.27
2018-05-08T06:16:04.023Z,96.70
2018-05-08T06:17:04.083Z,96.42
2018-05-08T06:18:04.144Z,95.94
2018-05-08T06:19:04.205Z,95.46
2018-05-08T06:20:04.262Z,95.46
2018-05-08T06:21:04.325Z,95.46
2018-05-08T06:22:04.384Z,95.61
2018-05-08T06:23:04.445Z,95.61
2018-05-08T06:24:04.504Z,94.36
2018-05-08T06:25:04.569Z,94.65
2018-05-08T06:26:04.628Z,94.07
2018-05-08T06:27:04.743Z,94.17
2018-05-08T06:28:04.753Z,93.98
2018-05-08T06:29:04.806Z,94.36
2018-05-08T06:30:04.871Z,94.07
2018-05-08T06:31:04.928Z,93.50
2018-05-08T06:32:04.987Z,93.12
2018-05-08T06:33:05.049Z,93.07
2018-05-08T06:34:05.110Z,93.36
2018-05-08T06:35:05.172Z,92.59
2018-05-08T06:36:05.230Z,92.69
2018-05-08T06:37:05.292Z,92.02
2018-05-08T06:38:05.351Z,92.30
2018-05-08T06:39:05.415Z,92.21
2018-05-08T06:40:05.493Z,91.64
2018-05-08T06:41:05.535Z,91.83
2018-05-08T06:42:05.596Z,90.92
2018-05-08T06:43:05.657Z,91.39
2018-05-08T06:44:05.723Z,90.92
2018-05-08T06:45:05.779Z,91.20
2018-05-08T06:46:05.839Z,90.82
2018-05-08T06:47:06.561Z,91.39
2018-05-08T06:48:05.960Z,91.11
2018-05-08T06:49:06.021Z,91.02
2018-05-08T06:50:06.082Z,90.92
2018-05-08T06:51:06.147Z,90.25
2018-05-08T06:52:06.204Z,90.44
2018-05-08T06:53:06.266Z,90.34
2018-05-08T06:54:06.326Z,90.34
2018-05-08T06:55:06.388Z,89.96
2018-05-08T06:56:06.446Z,89.81
2018-05-08T06:57:06.509Z,88.86
2018-05-08T06:58:06.570Z,88.48
2018-05-08T06:59:06.632Z,88.48
2018-05-08T07:00:06.695Z,88.48
2018-05-08T07:01:06.760Z,88.67
2018-05-08T07:02:06.815Z,88.19
2018-05-08T07:03:06.876Z,88.33
2018-05-08T07:04:06.941Z,88.81
2018-05-08T07:05:06.997Z,87.85
2018-05-08T07:06:07.059Z,87.37
2018-05-08T07:07:07.121Z,87.66
2018-05-08T07:08:07.255Z,87.56
2018-05-08T07:09:07.294Z,87.95
2018-05-08T07:10:07.303Z,87.18
2018-05-08T07:11:07.368Z,86.41
2018-05-08T07:12:07.427Z,86.22
2018-05-08T07:13:07.488Z,86.46
2018-05-08T07:14:07.551Z,86.65
2018-05-08T07:15:07.611Z,86.65
2018-05-08T07:16:07.865Z,86.84
2018-05-08T07:17:07.733Z,86.84
2018-05-08T07:18:07.798Z,86.94
2018-05-08T07:19:07.857Z,86.55
2018-05-08T07:20:07.919Z,86.08
2018-05-08T07:21:07.981Z,86.55
2018-05-08T07:22:08.046Z,85.69
2018-05-08T07:23:08.105Z,85.45
2018-05-08T07:24:08.170Z,85.45
2018-05-08T07:25:08.232Z,84.78
2018-05-08T07:26:08.290Z,84.20
2018-05-08T07:27:08.353Z,83.72
2018-05-08T07:28:08.413Z,84.20
2018-05-08T07:29:08.476Z,84.49
2018-05-08T07:30:08.538Z,84.11
2018-05-08T07:31:08.656Z,83.82
2018-05-08T07:32:09.845Z,83.82
2018-05-08T07:33:08.724Z,83.95
2018-05-08T07:34:08.787Z,83.00
2018-05-08T07:35:09.167Z,82.90
2018-05-08T07:36:08.938Z,82.52
2018-05-08T07:37:08.972Z,80.83
2018-05-08T07:38:09.099Z,80.93
2018-05-08T07:39:09.096Z,80.55
2018-05-08T07:40:09.158Z,80.55
2018-05-08T07:41:09.224Z,80.16
2018-05-08T07:42:09.283Z,80.93
2018-05-08T07:43:09.346Z,80.16
2018-05-08T07:44:09.412Z,80.30
2018-05-08T07:45:09.471Z,80.30
2018-05-08T07:46:09.535Z,80.49
2018-05-08T07:47:09.597Z,80.01
2018-05-08T07:48:09.659Z,80.58
2018-05-08T07:49:09.721Z,80.11
2018-05-08T07:50:09.783Z,79.63
2018-05-08T07:51:09.847Z,79.82
2018-05-08T07:52:09.909Z,78.96
2018-05-08T07:53:09.970Z,78.96
2018-05-08T07:54:10.035Z,78.57
2018-05-08T07:55:10.098Z,78.67
2018-05-08T07:56:10.162Z,78.32
2018-05-08T07:57:10.222Z,78.61
2018-05-08T07:58:10.286Z,77.94
2018-05-08T07:59:10.349Z,78.13
2018-05-08T08:00:10.413Z,77.75
2018-05-08T08:01:10.480Z,77.40
2018-05-08T08:02:10.537Z,76.64
2018-05-08T08:03:10.601Z,76.09
2018-05-08T08:04:10.661Z,75.32
2018-05-08T08:05:10.726Z,73.88
2018-05-08T08:06:10.788Z,74.94
2018-05-08T08:07:10.852Z,74.17
2018-05-08T08:08:10.921Z,74.08
2018-05-08T08:09:10.979Z,73.41
2018-05-08T08:10:11.040Z,73.06
2018-05-08T08:11:11.105Z,72.67
2018-05-08T08:12:11.179Z,72.19
2018-05-08T08:13:11.230Z,72.19
2018-05-08T08:14:11.298Z,72.00
2018-05-08T08:15:11.360Z,72.38
2018-05-08T08:16:11.421Z,71.14
2018-05-08T08:17:11.483Z,71.04
2018-05-08T08:18:11.549Z,70.78
2018-05-08T08:19:11.612Z,70.30
2018-05-08T08:20:11.679Z,69.63
2018-05-08T08:21:11.739Z,69.24
2018-05-08T08:22:11.804Z,67.83
2018-05-08T08:23:11.866Z,67.74
2018-05-08T08:24:11.936Z,67.74
2018-05-08T08:25:11.995Z,65.75
2018-05-08T08:26:12.076Z,64.89
2018-05-08T08:27:12.121Z,64.12
2018-05-08T08:28:12.218Z,61.90
2018-05-08T08:29:12.252Z,62.77
2018-05-08T08:30:12.314Z,63.92
2018-05-08T08:31:12.377Z,63.34
2018-05-08T08:32:12.444Z,62.67
2018-05-08T08:33:12.505Z,62.00
2018-05-08T08:34:12.966Z,61.32
2018-05-08T08:35:12.634Z,60.20
2018-05-08T08:36:12.697Z,60.07
2018-05-08T08:37:12.761Z,60.46
2018-05-08T08:38:12.828Z,60.68
2018-05-08T08:39:12.892Z,60.20
2018-05-08T08:40:13.965Z,60.10
2018-05-08T08:41:13.492Z,59.91
2018-05-08T08:42:13.626Z,58.88
2018-05-08T08:43:13.211Z,58.11
2018-05-08T08:44:13.239Z,58.69
2018-05-08T08:45:13.276Z,58.20
2018-05-08T08:46:13.341Z,58.42
2018-05-08T08:47:13.406Z,57.92
2018-05-08T08:48:13.470Z,57.56
2018-05-08T08:49:13.534Z,57.85
2018-05-08T08:50:13.604Z,56.69
2018-05-08T08:51:13.663Z,57.56
2018-05-08T08:52:14.323Z,57.94
2018-05-08T08:53:13.793Z,57.75
2018-05-08T08:54:13.859Z,57.65
2018-05-08T08:55:13.923Z,57.97
2018-05-08T08:56:13.988Z,56.62
2018-05-08T08:57:14.053Z,56.04
2018-05-08T08:58:14.117Z,56.33
2018-05-08T08:59:14.181Z,56.33
2018-05-08T09:00:14.245Z,56.43
2018-05-08T09:01:14.315Z,55.49
2018-05-08T09:02:14.377Z,54.62
2018-05-08T09:03:14.496Z,54.43
2018-05-08T09:04:14.506Z,55.30
2018-05-08T09:05:14.571Z,54.53
2018-05-08T09:06:14.640Z,54.88
2018-05-08T09:07:14.702Z,54.88
2018-05-08T09:08:14.771Z,55.01
2018-05-08T09:09:14.836Z,55.10
2018-05-08T09:10:14.899Z,55.01
2018-05-08T09:11:14.981Z,55.68
2018-05-08T09:12:15.027Z,55.49
2018-05-08T09:13:15.145Z,54.62
2018-05-08T09:14:15.158Z,54.75
2018-05-08T09:15:15.223Z,54.07
2018-05-08T09:16:15.302Z,53.59
2018-05-08T09:17:15.354Z,53.20
2018-05-08T09:18:15.421Z,53.97
2018-05-08T09:19:15.485Z,53.88
2018-05-08T09:20:15.552Z,53.78
2018-05-08T09:21:15.621Z,53.20
2018-05-08T09:22:16.047Z,54.07
2018-05-08T09:23:15.748Z,53.78
2018-05-08T09:24:15.813Z,53.39
2018-05-08T09:25:15.877Z,53.33
2018-05-08T09:26:15.945Z,52.65
2018-05-08T09:27:16.010Z,52.04
2018-05-08T09:28:16.075Z,52.43
2018-05-08T09:29:16.140Z,53.01
2018-05-08T09:30:16.205Z,53.39
2018-05-08T09:31:16.273Z,52.62
2018-05-08T09:32:16.338Z,52.07
2018-05-08T09:33:16.404Z,52.17
2018-05-08T09:34:16.470Z,53.03
2018-05-08T09:35:16.538Z,52.45
2018-05-08T09:36:16.601Z,51.68
2018-05-08T09:37:16.671Z,51.01
2018-05-08T09:38:16.762Z,50.81
2018-05-08T09:39:16.800Z,51.10
2018-05-08T09:40:16.864Z,50.93
2018-05-08T09:41:16.932Z,50.55
2018-05-08T09:42:16.996Z,50.67
2018-05-08T09:43:17.065Z,49.80
2018-05-08T09:44:17.214Z,49.99
2018-05-08T09:45:17.196Z,49.80
2018-05-08T09:46:17.262Z,49.90
2018-05-08T09:47:17.327Z,50.74
2018-05-08T09:48:17.423Z,49.90
2018-05-08T09:49:17.458Z,49.80
2018-05-08T09:50:17.526Z,49.87
2018-05-08T09:51:17.592Z,50.74
2018-05-08T09:52:17.657Z,49.87
2018-05-08T09:53:17.724Z,49.70
2018-05-08T09:54:17.827Z,49.70
2018-05-08T09:55:17.857Z,49.70
2018-05-08T09:56:17.923Z,49.63
2018-05-08T09:57:17.989Z,48.86
2018-05-08T09:58:18.056Z,47.60
2018-05-08T09:59:18.203Z,47.33
2018-05-08T10:00:18.190Z,46.75
2018-05-08T10:01:18.286Z,47.24
2018-05-08T10:02:18.323Z,47.41
2018-05-08T10:03:18.387Z,47.41
2018-05-08T10:04:18.458Z,47.31
2018-05-08T10:05:19.087Z,46.92
2018-05-08T10:06:18.588Z,46.83
2018-05-08T10:07:18.655Z,46.53
2018-05-08T10:08:18.722Z,46.83
2018-05-08T10:09:18.787Z,46.44
2018-05-08T10:10:18.855Z,45.86
2018-05-08T10:11:19.348Z,45.88
2018-05-08T10:12:19.019Z,45.40
2018-05-08T10:13:19.088Z,44.35
2018-05-08T10:14:19.124Z,44.16
2018-05-08T10:15:19.192Z,43.70
2018-05-08T10:16:19.259Z,42.32
2018-05-08T10:17:19.329Z,43.09
2018-05-08T10:18:19.403Z,42.41
2018-05-08T10:19:19.469Z,41.95
2018-05-08T10:20:19.536Z,41.47
2018-05-08T10:21:19.605Z,41.47
2018-05-08T10:22:19.676Z,41.49
2018-05-08T10:23:19.751Z,40.25
2018-05-08T10:24:19.817Z,39.18
2018-05-08T10:25:19.889Z,38.91
2018-05-08T10:26:19.961Z,38.13
2018-05-08T10:27:20.033Z,38.25
2018-05-08T10:28:20.169Z,36.89
2018-05-08T10:29:20.216Z,36.40
2018-05-08T10:30:20.252Z,36.40
2018-05-08T10:31:20.321Z,35.53
2018-05-08T10:32:20.394Z,35.63
2018-05-08T10:33:20.470Z,36.50
2018-05-08T10:34:20.543Z,36.40
2018-05-08T10:35:20.617Z,36.60
2018-05-08T10:36:21.240Z,36.89
2018-05-08T10:37:20.761Z,35.64
2018-05-08T10:38:20.837Z,35.17
2018-05-08T10:39:21.682Z,34.33
2018-05-08T10:40:20.985Z,33.95
2018-05-08T10:41:21.060Z,33.20
2018-05-08T10:42:21.714Z,32.52
2018-05-08T10:43:21.209Z,31.64
2018-05-08T10:44:21.283Z,32.99
2018-05-08T10:45:21.363Z,34.05
2018-05-08T10:46:21.435Z,34.25
2018-05-08T10:47:21.509Z,34.14
2018-05-08T10:48:21.586Z,34.61
2018-05-08T10:49:21.658Z,33.67
2018-05-08T10:50:22.050Z,33.26
2018-05-08T10:51:21.810Z,34.42
2018-05-08T10:52:21.885Z,34.22
2018-05-08T10:53:21.962Z,33.56
2018-05-08T10:54:22.038Z,33.95
2018-05-08T10:55:22.115Z,33.93
2018-05-08T10:56:22.188Z,34.33
2018-05-08T10:57:22.265Z,33.09
2018-05-08T10:58:22.341Z,31.84
2018-05-08T10:59:22.424Z,30.83
2018-05-08T11:00:22.494Z,29.54
2018-05-08T11:01:23.151Z,29.17
2018-05-08T11:02:23.459Z,29.14
2018-05-08T11:03:23.293Z,30.08
2018-05-08T11:04:23.306Z,31.53
2018-05-08T11:05:23.208Z,31.61
2018-05-08T11:06:23.526Z,31.32
2018-05-08T11:07:23.028Z,30.85
2018-05-08T11:08:23.117Z,30.67
2018-05-08T11:09:23.670Z,28.83
2018-05-08T11:10:23.257Z,29.21
2018-05-08T11:11:23.911Z,30.07
2018-05-08T11:12:24.116Z,30.44
2018-05-08T11:13:23.492Z,30.25
2018-05-08T11:14:23.566Z,29.32
2018-05-08T11:15:23.642Z,28.63
2018-05-08T11:16:23.716Z,26.68
2018-05-08T11:17:23.795Z,25.58
2018-05-08T11:18:23.873Z,26.07
2018-05-08T11:19:23.953Z,25.68
2018-05-08T11:20:24.024Z,25.41
2018-05-08T11:21:24.100Z,25.01
2018-05-08T11:22:24.177Z,25.40
2018-05-08T11:23:24.253Z,24.73
2018-05-08T11:24:24.329Z,23.96
2018-05-08T11:25:24.405Z,25.31
2018-05-08T11:26:24.556Z,24.85
2018-05-08T11:27:24.559Z,24.95
2018-05-08T11:28:24.632Z,25.03
2018-05-08T11:29:24.708Z,24.65
2018-05-08T11:30:25.479Z,24.07
2018-05-08T11:31:25.484Z,23.69
2018-05-08T11:32:25.376Z,23.12
2018-05-08T11:33:25.480Z,22.73
2018-05-08T11:34:25.426Z,24.72
2018-05-08T11:35:25.165Z,25.51
2018-05-08T11:36:25.240Z,24.39
2018-05-08T11:37:25.321Z,24.19
2018-05-08T11:38:25.393Z,23.33
2018-05-08T11:39:25.646Z,23.12
2018-05-08T11:40:25.552Z,23.71
2018-05-08T11:41:25.623Z,23.41
2018-05-08T11:42:25.852Z,23.05
2018-05-08T11:43:25.774Z,22.75
2018-05-08T11:44:25.851Z,22.47
2018-05-08T11:45:25.927Z,22.76
2018-05-08T11:46:26.005Z,22.27
2018-05-08T11:47:26.081Z,22.66
2018-05-08T11:48:26.157Z,21.86
2018-05-08T11:49:26.233Z,22.92
2018-05-08T11:50:26.312Z,22.56
2018-05-08T11:51:26.387Z,22.07
2018-05-08T11:52:26.462Z,21.59
2018-05-08T11:53:26.541Z,21.75
2018-05-08T11:54:26.867Z,21.86
2018-05-08T11:55:26.707Z,22.34
2018-05-08T11:56:26.771Z,21.58
2018-05-08T11:57:26.848Z,20.82
2018-05-08T11:58:26.926Z,19.75
2018-05-08T11:59:27.002Z,19.75
2018-05-08T12:00:27.081Z,19.08
2018-05-08T12:01:27.175Z,19.18
2018-05-08T12:02:27.231Z,19.20
2018-05-08T12:03:27.309Z,19.08
2018-05-08T12:04:27.386Z,19.27
2018-05-08T12:05:27.463Z,18.41
2018-05-08T12:06:27.540Z,18.42
2018-05-08T12:07:27.618Z,18.21
2018-05-08T12:08:27.694Z,18.88
2018-05-08T12:09:27.771Z,19.83
2018-05-08T12:10:27.850Z,21.15
2018-05-08T12:11:27.927Z,21.08
2018-05-08T12:12:28.004Z,20.12
2018-05-08T12:13:28.082Z,20.32
2018-05-08T12:14:28.216Z,19.84
2018-05-08T12:15:28.237Z,19.64
2018-05-08T12:16:28.314Z,20.51
2018-05-08T12:17:28.392Z,19.65
2018-05-08T12:18:28.469Z,19.35
2018-05-08T12:19:28.547Z,19.73
2018-05-08T12:20:28.622Z,19.26
2018-05-08T12:21:28.701Z,19.55
2018-05-08T12:22:28.781Z,19.47
2018-05-08T12:23:28.857Z,19.06
2018-05-08T12:24:28.932Z,19.46
2018-05-08T12:25:29.045Z,19.36
2018-05-08T12:26:29.089Z,18.89
2018-05-08T12:27:29.721Z,18.70
2018-05-08T12:28:29.739Z,18.49
2018-05-08T12:29:29.319Z,18.21
2018-05-08T12:30:29.398Z,17.62
2018-05-08T12:31:29.476Z,17.43
2018-05-08T12:32:29.554Z,17.22
2018-05-08T12:33:29.653Z,17.02
2018-05-08T12:34:29.709Z,17.04
2018-05-08T12:35:29.786Z,16.17
2018-05-08T12:36:29.862Z,16.64
2018-05-08T12:37:29.940Z,17.22
2018-05-08T12:38:30.019Z,17.51
2018-05-08T12:39:30.096Z,17.62
2018-05-08T12:40:30.173Z,16.93
2018-05-08T12:41:30.263Z,17.80
2018-05-08T12:42:30.327Z,16.73
2018-05-08T12:43:30.421Z,17.00
2018-05-08T12:44:30.482Z,17.10
2018-05-08T12:45:30.559Z,16.64
2018-05-08T12:46:30.638Z,15.95
2018-05-08T12:47:30.716Z,16.62
2018-05-08T12:48:30.792Z,16.72
2018-05-08T12:49:30.870Z,17.02
2018-05-08T12:50:30.962Z,16.72
2018-05-08T12:51:31.025Z,16.35
2018-05-08T12:52:31.102Z,16.83
2018-05-08T12:53:31.178Z,16.44